createdAt,value
2023-03-24T00:01:14.589Z,9.97
2023-03-24T00:04:01.167Z,9.93
2023-03-24T00:06:49.411Z,9.89
2023-03-24T00:09:36.703Z,9.80
2023-03-24T00:12:22.511Z,9.67
2023-03-24T00:15:12.328Z,9.64
2023-03-24T00:17:58.463Z,9.58
2023-03-24T00:20:46.356Z,9.57
2023-03-24T00:23:33.982Z,9.52
2023-03-24T00:26:20.546Z,9.45
2023-03-24T00:29:08.934Z,9.38
2023-03-24T00:31:54.734Z,9.30
2023-03-24T00:34:40.580Z,9.27
2023-03-24T00:37:26.864Z,9.22
2023-03-24T00:40:16.465Z,9.20
2023-03-24T00:43:03.778Z,9.16
2023-03-24T00:45:49.709Z,9.11
2023-03-24T00:48:38.299Z,9.12
2023-03-24T00:51:25.327Z,9.11
2023-03-24T00:54:12.792Z,9.05
2023-03-24T00:56:58.883Z,9.06
2023-03-24T00:59:48.743Z,8.97
2023-03-24T01:02:34.792Z,8.96
2023-03-24T01:05:25.745Z,8.90
2023-03-24T01:08:11.506Z,8.86
2023-03-24T01:10:57.410Z,8.82
2023-03-24T01:13:43.402Z,8.70
2023-03-24T01:16:29.120Z,8.69
2023-03-24T01:19:15.887Z,8.66
2023-03-24T01:22:02.397Z,8.50
2023-03-24T01:24:49.277Z,8.52
2023-03-24T01:27:37.029Z,8.46
2023-03-24T01:30:28.544Z,8.39
2023-03-24T01:33:14.304Z,8.31
2023-03-24T01:36:00.111Z,8.32
2023-03-24T01:38:46.099Z,8.29
2023-03-24T01:41:35.584Z,8.24
2023-03-24T01:44:24.536Z,8.19
2023-03-24T01:47:10.576Z,8.13
2023-03-24T01:50:02.662Z,8.11
2023-03-24T01:52:50.420Z,7.99
2023-03-24T01:55:36.028Z,7.97
2023-03-24T01:58:25.576Z,7.94
2023-03-24T02:01:30.876Z,7.87
2023-03-24T02:04:25.863Z,7.83
2023-03-24T02:07:23.709Z,7.78
2023-03-24T02:10:11.091Z,7.74
2023-03-24T02:12:57.313Z,7.77
2023-03-24T02:16:10.493Z,7.77
2023-03-24T02:19:12.557Z,7.80
2023-03-24T02:22:29.503Z,7.80
2023-03-24T02:25:44.959Z,7.81
2023-03-24T02:28:41.466Z,7.79
2023-03-24T02:31:51.221Z,7.78
2023-03-24T02:35:03.850Z,7.75
2023-03-24T02:38:11.992Z,7.67
2023-03-24T02:41:17.192Z,7.64
2023-03-24T02:44:21.614Z,7.58
2023-03-24T02:47:15.356Z,7.48
2023-03-24T02:50:16.779Z,7.45
2023-03-24T02:53:09.982Z,7.50
2023-03-24T02:56:12.558Z,7.50
2023-03-24T02:59:03.331Z,7.40
2023-03-24T03:01:58.916Z,7.37
2023-03-24T03:05:19.970Z,7.36
2023-03-24T03:08:10.023Z,7.34
2023-03-24T03:10:57.639Z,7.35
2023-03-24T03:14:08.518Z,7.29
2023-03-24T03:17:05.030Z,7.23
2023-03-24T03:20:08.054Z,7.17
2023-03-24T03:22:57.016Z,7.13
2023-03-24T03:25:50.590Z,7.13
2023-03-24T03:28:39.119Z,7.12
2023-03-24T03:31:30.235Z,7.12
2023-03-24T03:34:49.733Z,7.08
2023-03-24T03:37:55.575Z,7.04
2023-03-24T03:40:42.382Z,7.07
2023-03-24T03:43:35.607Z,7.02
2023-03-24T03:46:22.213Z,7.04
2023-03-24T03:49:09.075Z,7.03
2023-03-24T03:51:55.808Z,7.01
2023-03-24T03:54:42.861Z,6.96
2023-03-24T03:57:29.075Z,7.01
2023-03-24T04:00:36.940Z,7.01
2023-03-24T04:04:10.640Z,6.95
2023-03-24T04:07:33.713Z,6.87
2023-03-24T04:11:21.279Z,6.84
2023-03-24T04:14:55.006Z,6.80
2023-03-24T04:18:17.416Z,6.82
2023-03-24T04:21:51.804Z,6.76
2023-03-24T04:24:52.007Z,6.70
2023-03-24T04:28:05.648Z,6.57
2023-03-24T04:31:01.423Z,6.55
2023-03-24T04:33:58.456Z,6.51
2023-03-24T04:37:06.878Z,6.47
2023-03-24T04:40:06.002Z,6.52
2023-03-24T04:42:53.703Z,6.52
2023-03-24T04:45:50.175Z,6.52
2023-03-24T04:48:49.225Z,6.51
2023-03-24T04:51:52.089Z,6.49
2023-03-24T04:54:42.069Z,6.45
2023-03-24T04:57:29.082Z,6.38
2023-03-24T05:00:19.961Z,6.40
2023-03-24T05:03:06.119Z,6.41
2023-03-24T05:05:53.241Z,6.41
2023-03-24T05:08:39.746Z,6.38
2023-03-24T05:11:27.360Z,6.38
2023-03-24T05:14:21.772Z,6.43
2023-03-24T05:17:07.832Z,6.42
2023-03-24T05:19:53.577Z,6.46
2023-03-24T05:22:41.017Z,6.46
2023-03-24T05:25:27.065Z,6.49
2023-03-24T05:28:12.877Z,6.48
2023-03-24T05:30:59.037Z,6.48
2023-03-24T05:34:03.397Z,6.50
2023-03-24T05:36:51.289Z,6.53
2023-03-24T05:39:40.432Z,6.53
2023-03-24T05:42:49.271Z,6.56
2023-03-24T05:45:35.610Z,6.58
2023-03-24T05:48:56.436Z,6.62
2023-03-24T05:51:49.548Z,6.64
2023-03-24T05:54:36.364Z,6.73
2023-03-24T05:57:34.839Z,6.78
2023-03-24T06:00:39.069Z,6.81
2023-03-24T06:03:34.710Z,6.83
2023-03-24T06:06:30.997Z,6.91
2023-03-24T06:09:17.062Z,6.95
2023-03-24T06:12:04.873Z,7.05
2023-03-24T06:14:54.749Z,7.10
2023-03-24T06:17:43.252Z,7.17
2023-03-24T06:20:39.192Z,7.22
2023-03-24T06:23:28.973Z,7.36
2023-03-24T06:26:25.475Z,7.45
2023-03-24T06:29:18.261Z,7.53
2023-03-24T06:32:05.728Z,7.57
2023-03-24T06:34:57.838Z,7.66
2023-03-24T06:37:57.787Z,7.74
2023-03-24T06:40:43.469Z,7.75
2023-03-24T06:43:30.153Z,7.79
2023-03-24T06:46:16.289Z,7.84
2023-03-24T06:49:04.922Z,7.91
2023-03-24T06:51:50.869Z,7.98
2023-03-24T06:54:37.691Z,8.07
2023-03-24T06:57:23.459Z,8.14
2023-03-24T07:00:48.784Z,8.24
2023-03-24T07:03:46.449Z,8.31
2023-03-24T07:06:43.060Z,8.41
2023-03-24T07:09:37.320Z,8.50
2023-03-24T07:12:23.195Z,8.56
2023-03-24T07:15:09.574Z,8.62
2023-03-24T07:17:55.666Z,8.68
2023-03-24T07:21:02.358Z,8.83
2023-03-24T07:23:49.194Z,8.90
2023-03-24T07:26:38.439Z,8.98
2023-03-24T07:29:37.387Z,9.09
2023-03-24T07:32:39.452Z,9.17
2023-03-24T07:35:25.523Z,9.26
2023-03-24T07:38:11.356Z,9.35
2023-03-24T07:41:01.276Z,9.49
2023-03-24T07:43:49.551Z,9.57
2023-03-24T07:46:58.059Z,9.71
2023-03-24T07:49:43.665Z,9.79
2023-03-24T07:52:30.949Z,9.90
2023-03-24T07:55:17.204Z,10.03
2023-03-24T07:58:16.354Z,10.18
2023-03-24T08:01:18.332Z,10.28
2023-03-24T08:04:07.464Z,10.46
2023-03-24T08:07:13.912Z,10.58
2023-03-24T08:09:59.845Z,10.70
2023-03-24T08:12:46.336Z,10.82
2023-03-24T08:15:32.399Z,11.00
2023-03-24T08:18:18.127Z,11.12
2023-03-24T08:21:04.434Z,11.26
2023-03-24T08:23:50.348Z,11.44
2023-03-24T08:26:36.392Z,11.60
2023-03-24T08:29:22.195Z,11.75
2023-03-24T08:32:07.903Z,11.85
2023-03-24T08:34:54.347Z,12.05
2023-03-24T08:37:43.374Z,12.19
2023-03-24T08:40:29.911Z,12.33
2023-03-24T08:43:16.194Z,12.47
2023-03-24T08:46:03.196Z,12.63
2023-03-24T08:48:49.135Z,12.80
2023-03-24T08:51:35.824Z,12.89
2023-03-24T08:54:23.734Z,13.16
2023-03-24T08:57:09.317Z,13.33
2023-03-24T08:59:55.062Z,13.48
2023-03-24T09:02:42.189Z,13.68
2023-03-24T09:05:43.401Z,13.87
2023-03-24T09:08:31.624Z,14.07
2023-03-24T09:11:19.407Z,14.27
2023-03-24T09:14:04.987Z,14.45
2023-03-24T09:16:51.541Z,14.65
2023-03-24T09:19:38.154Z,14.83
2023-03-24T09:22:24.134Z,15.02
2023-03-24T09:25:11.386Z,15.21
2023-03-24T09:27:57.557Z,15.39
2023-03-24T09:30:44.050Z,15.60
2023-03-24T09:33:30.740Z,15.77
2023-03-24T09:36:16.402Z,15.94
2023-03-24T09:39:02.097Z,16.14
2023-03-24T09:41:50.558Z,16.33
2023-03-24T09:44:41.517Z,16.54
2023-03-24T09:47:33.777Z,16.76
2023-03-24T09:50:26.716Z,16.97
2023-03-24T09:53:53.418Z,17.16
2023-03-24T09:56:41.473Z,17.35
2023-03-24T09:59:40.621Z,17.52
2023-03-24T10:02:29.325Z,17.64
2023-03-24T10:05:23.359Z,17.88
2023-03-24T10:08:29.446Z,18.00
2023-03-24T10:11:47.899Z,18.25
2023-03-24T10:15:37.926Z,18.42
2023-03-24T10:18:50.383Z,18.69
2023-03-24T10:21:39.487Z,18.89
2023-03-24T10:24:38.235Z,19.01
2023-03-24T10:27:29.292Z,19.27
2023-03-24T10:30:22.158Z,19.44
2023-03-24T10:33:11.688Z,19.56
2023-03-24T10:36:04.710Z,19.70
2023-03-24T10:38:52.749Z,19.83
2023-03-24T10:41:39.733Z,19.98
2023-03-24T10:44:27.100Z,20.17
2023-03-24T10:47:14.256Z,20.36
2023-03-24T10:50:12.704Z,20.52
2023-03-24T10:53:00.414Z,20.70
2023-03-24T10:55:47.913Z,20.90
2023-03-24T10:58:39.035Z,21.04
2023-03-24T11:01:25.071Z,21.28
2023-03-24T11:04:16.486Z,21.46
2023-03-24T11:07:14.167Z,21.67
2023-03-24T11:10:15.576Z,21.89
2023-03-24T11:13:04.085Z,22.14
2023-03-24T11:15:57.165Z,22.40
2023-03-24T11:19:02.885Z,22.72
2023-03-24T11:21:50.364Z,23.10
2023-03-24T11:24:37.865Z,23.51
2023-03-24T11:27:23.911Z,23.95
2023-03-24T11:30:13.482Z,24.40
2023-03-24T11:33:00.031Z,24.82
2023-03-24T11:35:50.335Z,25.28
2023-03-24T11:38:42.931Z,25.72
2023-03-24T11:41:28.655Z,26.01
2023-03-24T11:44:17.244Z,26.37
2023-03-24T11:47:16.573Z,26.75
2023-03-24T11:50:12.609Z,27.09
2023-03-24T11:53:16.616Z,27.34
2023-03-24T11:56:17.643Z,27.51
2023-03-24T11:59:09.408Z,27.88
2023-03-24T12:01:59.550Z,28.20
2023-03-24T12:05:04.912Z,28.37
2023-03-24T12:08:01.900Z,28.37
2023-03-24T12:11:06.682Z,28.24
2023-03-24T12:13:53.034Z,27.92
2023-03-24T12:16:54.856Z,27.58
2023-03-24T12:19:53.399Z,27.53
2023-03-24T12:22:47.834Z,27.79
2023-03-24T12:25:47.286Z,28.16
2023-03-24T12:28:54.109Z,28.48
2023-03-24T12:31:49.531Z,28.70
2023-03-24T12:34:53.585Z,28.92
2023-03-24T12:37:57.841Z,29.19
2023-03-24T12:41:02.210Z,29.45
2023-03-24T12:44:39.438Z,29.68
2023-03-24T12:47:50.832Z,29.95
2023-03-24T12:51:06.315Z,30.18
2023-03-24T12:54:31.406Z,30.50
2023-03-24T12:57:18.766Z,30.70
2023-03-24T13:00:13.755Z,30.86
2023-03-24T13:03:22.285Z,31.26
2023-03-24T13:06:35.304Z,31.69
2023-03-24T13:09:31.512Z,31.98
2023-03-24T13:12:21.067Z,32.15
2023-03-24T13:15:10.366Z,32.11
2023-03-24T13:17:55.968Z,31.97
2023-03-24T13:20:44.664Z,31.79
2023-03-24T13:23:44.038Z,31.91
2023-03-24T13:26:39.514Z,32.22
2023-03-24T13:29:49.857Z,32.50
2023-03-24T13:32:48.373Z,32.76
2023-03-24T13:35:56.438Z,32.99
2023-03-24T13:38:53.575Z,33.26
2023-03-24T13:41:39.897Z,33.39
2023-03-24T13:48:10.517Z,34.03
2023-03-24T13:51:26.782Z,34.26
2023-03-24T13:54:18.555Z,34.37
2023-03-24T13:57:08.938Z,34.53
2023-03-24T14:00:14.452Z,34.72
2023-03-24T14:03:16.958Z,34.70
2023-03-24T14:06:05.454Z,34.73
2023-03-24T14:08:53.774Z,34.90
2023-03-24T14:11:43.349Z,34.81
2023-03-24T14:14:31.358Z,34.82
2023-03-24T14:17:17.249Z,34.87
2023-03-24T14:20:12.528Z,34.54
2023-03-24T14:22:59.058Z,34.06
2023-03-24T14:26:17.398Z,33.80
2023-03-24T14:29:03.977Z,33.34
2023-03-24T14:31:51.986Z,33.05
2023-03-24T14:34:37.771Z,32.73
2023-03-24T14:37:24.727Z,32.56
2023-03-24T14:40:44.866Z,32.38
2023-03-24T14:43:56.427Z,32.12
2023-03-24T14:46:50.363Z,31.94
2023-03-24T14:49:34.766Z,31.35
2023-03-24T14:52:36.535Z,30.40
2023-03-24T14:55:24.187Z,29.16
2023-03-24T14:58:22.263Z,28.13
2023-03-24T15:01:09.464Z,27.06
2023-03-24T15:04:07.677Z,26.26
2023-03-24T15:06:54.042Z,25.50
2023-03-24T15:09:50.545Z,24.94
2023-03-24T15:12:36.567Z,24.44
2023-03-24T15:15:25.892Z,24.05
2023-03-24T15:18:26.813Z,23.70
2023-03-24T15:21:24.025Z,23.41
2023-03-24T15:24:34.291Z,23.15
2023-03-24T15:27:27.260Z,22.91
2023-03-24T15:30:16.554Z,22.72
2023-03-24T15:33:03.616Z,22.52
2023-03-24T15:35:57.101Z,22.39
2023-03-24T15:38:50.054Z,22.25
2023-03-24T15:41:36.021Z,22.11
2023-03-24T15:44:31.892Z,22.02
2023-03-24T15:47:22.938Z,21.92
2023-03-24T15:50:32.354Z,21.83
2023-03-24T15:53:18.235Z,21.74
2023-03-24T15:56:28.651Z,21.64
2023-03-24T15:59:15.704Z,21.57
2023-03-24T16:02:03.817Z,21.53
2023-03-24T16:05:00.229Z,21.51
2023-03-24T16:08:06.275Z,21.49
2023-03-24T16:11:00.824Z,21.38
2023-03-24T16:13:46.593Z,21.31
2023-03-24T16:16:36.951Z,21.26
2023-03-24T16:19:23.107Z,21.14
2023-03-24T16:22:12.662Z,21.13
2023-03-24T16:24:59.257Z,21.03
2023-03-24T16:27:45.274Z,21.02
2023-03-24T16:30:37.856Z,20.93
2023-03-24T16:33:36.327Z,20.86
2023-03-24T16:36:23.545Z,20.82
2023-03-24T16:39:18.088Z,20.76
2023-03-24T16:42:04.401Z,20.70
2023-03-24T16:44:50.392Z,20.64
2023-03-24T16:47:38.428Z,20.59
2023-03-24T16:50:42.376Z,20.52
2023-03-24T16:53:28.279Z,20.46
2023-03-24T16:56:16.750Z,20.37
2023-03-24T16:59:03.859Z,20.34
2023-03-24T17:01:52.368Z,20.30
2023-03-24T17:04:38.447Z,20.24
2023-03-24T17:07:24.029Z,20.20
2023-03-24T17:10:10.236Z,20.13
2023-03-24T17:31:28.553Z,19.75
2023-03-24T17:52:55.184Z,19.47
2023-03-24T17:55:41.334Z,19.61
2023-03-24T17:58:27.120Z,19.82
2023-03-24T18:01:14.969Z,19.91
2023-03-24T18:04:01.356Z,20.01
2023-03-24T18:06:47.862Z,20.05
2023-03-24T18:09:34.237Z,20.02
2023-03-24T18:12:20.734Z,19.97
2023-03-24T18:15:07.574Z,19.89
2023-03-24T18:17:53.969Z,19.83
2023-03-24T18:20:39.911Z,19.75
2023-03-24T18:23:26.526Z,19.68
2023-03-24T18:26:12.285Z,19.60
2023-03-24T18:28:58.148Z,19.50
2023-03-24T18:31:43.978Z,19.42
2023-03-24T18:34:30.876Z,19.32
2023-03-24T18:37:16.991Z,19.24
2023-03-24T18:40:07.409Z,19.21
2023-03-24T18:42:53.438Z,19.16
2023-03-24T18:45:39.332Z,19.08
2023-03-24T18:48:25.246Z,19.03
2023-03-24T18:51:11.624Z,18.96
2023-03-24T18:53:57.448Z,18.91
2023-03-24T18:56:43.593Z,18.85
2023-03-24T18:59:31.196Z,18.78
2023-03-24T19:02:17.247Z,18.68
2023-03-24T19:05:04.216Z,18.63
2023-03-24T19:07:52.341Z,18.60
2023-03-24T19:10:38.316Z,18.52
2023-03-24T19:13:24.177Z,18.48
2023-03-24T19:16:11.954Z,18.41
2023-03-24T19:19:01.025Z,18.33
2023-03-24T19:21:47.407Z,18.28
2023-03-24T19:24:42.928Z,18.19
2023-03-24T19:27:29.355Z,18.09
2023-03-24T19:30:17.360Z,17.96
2023-03-24T19:33:03.648Z,17.91
2023-03-24T19:35:51.040Z,17.86
2023-03-24T19:38:38.780Z,17.81
2023-03-24T19:41:26.613Z,17.80
2023-03-24T19:44:12.777Z,17.75
2023-03-24T19:46:58.857Z,17.71
2023-03-24T19:49:44.894Z,17.63
2023-03-24T19:52:31.044Z,17.58
2023-03-24T19:55:17.069Z,17.53
2023-03-24T19:58:03.894Z,17.48
2023-03-24T20:00:50.896Z,17.51
2023-03-24T20:03:37.556Z,17.48
2023-03-24T20:06:23.758Z,17.42
2023-03-24T20:09:09.556Z,17.30
2023-03-24T20:11:55.575Z,17.30
2023-03-24T20:14:41.848Z,17.28
2023-03-24T20:17:29.777Z,17.20
2023-03-24T20:20:18.311Z,17.12
2023-03-24T20:23:04.787Z,17.04
2023-03-24T20:25:52.322Z,16.97
2023-03-24T20:28:38.413Z,16.92
2023-03-24T20:31:28.101Z,16.85
2023-03-24T20:34:13.993Z,16.84
2023-03-24T20:37:00.238Z,16.79
2023-03-24T20:39:46.515Z,16.71
2023-03-24T20:42:33.769Z,16.73
2023-03-24T20:45:20.014Z,16.66
2023-03-24T20:48:06.785Z,16.66
2023-03-24T20:50:53.286Z,16.63
2023-03-24T20:53:40.794Z,16.58
2023-03-24T20:56:26.710Z,16.53
2023-03-24T20:59:13.858Z,16.46
2023-03-24T21:02:01.996Z,16.40
2023-03-24T21:04:48.007Z,16.33
2023-03-24T21:07:34.373Z,16.26
2023-03-24T21:10:20.479Z,16.23
2023-03-24T21:13:08.813Z,16.19
2023-03-24T21:15:54.957Z,16.16
2023-03-24T21:18:42.773Z,16.11
2023-03-24T21:21:29.242Z,16.07
2023-03-24T21:24:16.225Z,16.02
2023-03-24T21:27:02.305Z,15.97
2023-03-24T21:29:48.237Z,15.94
2023-03-24T21:32:36.682Z,15.85
2023-03-24T21:35:25.192Z,15.88
2023-03-24T21:38:11.868Z,15.83
2023-03-24T21:40:58.698Z,15.83
2023-03-24T21:43:51.380Z,15.74
2023-03-24T21:46:37.728Z,15.78
2023-03-24T21:49:23.497Z,15.72
2023-03-24T21:52:09.451Z,15.69
2023-03-24T21:54:58.237Z,15.64
2023-03-24T21:57:45.590Z,15.64
2023-03-24T22:00:35.330Z,15.61
2023-03-24T22:03:21.943Z,15.60
2023-03-24T22:06:10.816Z,15.53
2023-03-24T22:08:58.729Z,15.54
2023-03-24T22:11:45.497Z,15.49
2023-03-24T22:14:31.738Z,15.47
2023-03-24T22:17:17.730Z,15.44
2023-03-24T22:20:09.300Z,15.41
2023-03-24T22:22:56.297Z,15.47
2023-03-24T22:25:42.049Z,15.46
2023-03-24T22:28:29.028Z,15.44
2023-03-24T22:31:16.898Z,15.43
2023-03-24T22:34:02.892Z,15.42
2023-03-24T22:36:48.618Z,15.35
2023-03-24T22:39:34.271Z,15.26
2023-03-24T22:42:20.296Z,15.23
2023-03-24T22:45:07.030Z,15.19
2023-03-24T22:47:53.068Z,15.09
2023-03-24T22:50:42.244Z,15.06
2023-03-24T22:53:28.599Z,14.97
2023-03-24T22:56:15.509Z,14.94
2023-03-24T22:59:01.571Z,14.86
2023-03-24T23:01:53.663Z,14.75
2023-03-24T23:04:48.407Z,14.71
2023-03-24T23:07:35.001Z,14.61
2023-03-24T23:10:21.440Z,14.50
2023-03-24T23:13:07.249Z,14.40
2023-03-24T23:15:53.813Z,14.30
2023-03-24T23:18:39.563Z,14.20
2023-03-24T23:21:25.258Z,14.05
2023-03-24T23:24:11.284Z,13.83
2023-03-24T23:26:57.242Z,13.67
2023-03-24T23:29:43.101Z,13.55
2023-03-24T23:32:28.864Z,13.42
2023-03-24T23:35:15.571Z,13.30
2023-03-24T23:38:02.540Z,13.19
2023-03-24T23:40:48.693Z,13.15
2023-03-24T23:43:35.599Z,13.08
2023-03-24T23:46:22.226Z,13.04
2023-03-24T23:49:09.650Z,12.98
2023-03-24T23:51:55.670Z,12.96
2023-03-24T23:54:41.950Z,12.89
2023-03-24T23:57:28.010Z,12.85
